createdAt,value
2019-04-14T00:01:34.776Z,58.30
2019-04-14T00:04:11.451Z,58.60
2019-04-14T00:06:41.955Z,58.70
2019-04-14T00:09:14.742Z,59.10
2019-04-14T00:11:45.952Z,59.00
2019-04-14T00:14:16.414Z,58.80
2019-04-14T00:16:46.738Z,59.00
2019-04-14T00:19:17.344Z,58.90
2019-04-14T00:21:47.648Z,58.80
2019-04-14T00:24:18.419Z,58.80
2019-04-14T00:26:49.419Z,59.10
2019-04-14T00:29:19.533Z,59.10
2019-04-14T00:31:51.091Z,58.90
2019-04-14T00:34:22.637Z,59.20
2019-04-14T00:36:56.977Z,58.40
2019-04-14T00:39:31.592Z,58.20
2019-04-14T00:42:04.664Z,57.80
2019-04-14T00:44:39.201Z,57.50
2019-04-14T00:47:20.028Z,56.10
2019-04-14T00:49:50.895Z,55.90
2019-04-14T00:52:21.279Z,55.50
2019-04-14T00:54:52.126Z,55.00
2019-04-14T00:57:22.434Z,55.30
2019-04-14T00:59:53.073Z,54.90
2019-04-14T01:02:23.272Z,54.30
2019-04-14T01:04:53.477Z,53.90
2019-04-14T01:07:26.108Z,51.60
2019-04-14T01:09:55.421Z,51.60
2019-04-14T01:12:25.726Z,50.30
2019-04-14T01:14:55.986Z,50.30
2019-04-14T01:17:26.946Z,49.90
2019-04-14T01:19:57.005Z,49.40
2019-04-14T01:22:27.167Z,49.00
2019-04-14T01:24:57.571Z,49.20
2019-04-14T01:27:27.774Z,50.40
2019-04-14T01:29:58.170Z,49.70
2019-04-14T01:32:28.311Z,48.60
2019-04-14T01:34:58.900Z,50.30
2019-04-14T01:37:31.177Z,49.00
2019-04-14T01:40:01.145Z,48.60
2019-04-14T01:42:31.114Z,48.00
2019-04-14T01:45:01.425Z,49.20
2019-04-14T01:47:31.434Z,48.50
2019-04-14T01:50:01.792Z,48.20
2019-04-14T01:52:43.611Z,48.10
2019-04-14T01:55:22.266Z,49.20
2019-04-14T01:58:03.321Z,48.40
2019-04-14T02:00:51.320Z,48.20
2019-04-14T02:03:21.736Z,48.70
2019-04-14T02:05:51.795Z,48.60
2019-04-14T02:08:22.042Z,48.70
2019-04-14T02:10:54.319Z,48.80
2019-04-14T02:13:24.734Z,48.10
2019-04-14T02:15:54.998Z,48.90
2019-04-14T02:18:25.256Z,49.00
2019-04-14T02:20:55.757Z,48.50
2019-04-14T02:23:25.823Z,48.10
2019-04-14T02:25:56.045Z,48.20
2019-04-14T02:28:26.460Z,47.80
2019-04-14T02:31:10.282Z,48.70
2019-04-14T02:33:54.056Z,48.50
2019-04-14T02:39:15.564Z,48.80
2019-04-14T02:41:35.720Z,47.80
2019-04-14T02:44:04.619Z,48.10
2019-04-14T02:46:38.494Z,48.70
2019-04-14T02:51:49.659Z,48.50
2019-04-14T02:54:05.043Z,48.00
2019-04-14T02:56:36.298Z,48.00
2019-04-14T02:59:11.728Z,47.60
2019-04-14T03:01:54.770Z,47.30
2019-04-14T03:04:13.740Z,48.50
2019-04-14T03:06:50.413Z,47.50
2019-04-14T03:11:46.153Z,47.60
2019-04-14T03:14:25.441Z,48.50
2019-04-14T03:17:16.210Z,47.90
2019-04-14T03:19:44.497Z,48.10
2019-04-14T03:22:25.531Z,48.00
2019-04-14T03:24:34.109Z,48.20
2019-04-14T03:27:15.207Z,47.50
2019-04-14T03:29:54.732Z,47.80
2019-04-14T03:32:49.614Z,48.50
2019-04-14T03:37:45.246Z,49.40
2019-04-14T03:39:51.918Z,49.60
2019-04-14T03:42:28.885Z,49.30
2019-04-14T03:44:56.385Z,48.60
2019-04-14T03:47:23.791Z,48.00
2019-04-14T03:50:13.686Z,47.60
2019-04-14T03:52:37.852Z,47.80
2019-04-14T03:54:56.697Z,48.20
2019-04-14T03:57:10.434Z,48.20
2019-04-14T03:59:41.275Z,48.90
2019-04-14T04:02:11.820Z,48.80
2019-04-14T04:04:42.327Z,47.90
2019-04-14T04:07:12.610Z,48.30
2019-04-14T04:09:45.349Z,47.50
2019-04-14T04:12:16.044Z,48.70
2019-04-14T04:14:46.397Z,47.70
2019-04-14T04:17:21.211Z,48.30
2019-04-14T04:19:53.430Z,48.80
2019-04-14T04:22:41.386Z,47.60
2019-04-14T04:25:13.874Z,48.90
2019-04-14T04:27:52.554Z,48.50
2019-04-14T04:30:40.292Z,47.90
2019-04-14T04:33:21.794Z,48.30
2019-04-14T04:35:56.520Z,48.90
2019-04-14T04:38:34.037Z,48.60
2019-04-14T04:41:03.865Z,48.90
2019-04-14T04:43:34.098Z,48.60
2019-04-14T04:46:04.859Z,49.10
2019-04-14T04:48:34.989Z,48.50
2019-04-14T04:51:05.068Z,49.60
2019-04-14T04:53:35.395Z,48.70
2019-04-14T04:56:05.780Z,48.70
2019-04-14T04:58:37.063Z,48.60
2019-04-14T05:01:07.722Z,48.90
2019-04-14T05:03:38.536Z,48.40
2019-04-14T05:06:11.269Z,48.50
2019-04-14T05:08:50.145Z,48.30
2019-04-14T05:11:31.657Z,48.20
2019-04-14T05:14:04.295Z,48.40
2019-04-14T05:16:34.564Z,48.60
2019-04-14T05:19:14.014Z,48.80
2019-04-14T05:21:36.666Z,48.30
2019-04-14T05:24:07.074Z,48.50
2019-04-14T05:26:37.366Z,47.70
2019-04-14T05:29:07.790Z,48.50
2019-04-14T05:31:38.782Z,48.20
2019-04-14T05:34:08.719Z,47.80
2019-04-14T05:36:38.878Z,48.70
2019-04-14T05:39:08.981Z,48.30
2019-04-14T05:41:40.795Z,48.70
2019-04-14T05:44:10.329Z,48.70
2019-04-14T05:46:40.373Z,49.70
2019-04-14T05:49:12.084Z,48.10
2019-04-14T05:51:41.996Z,49.10
2019-04-14T05:54:31.775Z,48.60
2019-04-14T05:57:02.350Z,48.30
2019-04-14T05:59:32.919Z,48.50
2019-04-14T06:02:02.778Z,48.30
2019-04-14T06:04:33.186Z,47.60
2019-04-14T06:07:03.029Z,47.70
2019-04-14T06:09:32.846Z,48.70
2019-04-14T06:12:02.654Z,48.40
2019-04-14T06:14:32.538Z,48.30
2019-04-14T06:17:02.350Z,47.90
2019-04-14T06:19:38.070Z,47.50
2019-04-14T06:22:03.722Z,48.00
2019-04-14T06:24:33.605Z,48.00
2019-04-14T06:27:03.502Z,48.10
2019-04-14T06:29:33.301Z,48.50
2019-04-14T06:32:14.091Z,48.90
2019-04-14T06:35:01.718Z,50.40
2019-04-14T06:37:36.382Z,51.40
2019-04-14T06:40:08.354Z,52.30
2019-04-14T06:42:38.238Z,53.00
2019-04-14T06:45:08.049Z,55.30
2019-04-14T06:47:38.207Z,54.80
2019-04-14T06:50:08.027Z,54.40
2019-04-14T06:52:37.910Z,54.10
2019-04-14T06:55:07.723Z,53.50
2019-04-14T06:57:37.551Z,53.50
2019-04-14T07:00:07.371Z,54.10
2019-04-14T07:02:37.185Z,52.40
2019-04-14T07:05:07.100Z,52.60
2019-04-14T07:07:36.913Z,52.20
2019-04-14T07:10:07.794Z,53.10
2019-04-14T07:12:37.681Z,53.30
2019-04-14T07:15:07.650Z,53.80
2019-04-14T07:17:37.531Z,54.90
2019-04-14T07:20:07.482Z,56.40
2019-04-14T07:22:37.701Z,56.40
2019-04-14T07:25:07.547Z,56.10
2019-04-14T07:27:37.433Z,56.60
2019-04-14T07:30:25.234Z,55.90
2019-04-14T07:32:57.156Z,56.20
2019-04-14T07:35:34.644Z,56.80
2019-04-14T07:38:21.462Z,55.90
2019-04-14T07:41:08.074Z,55.40
2019-04-14T07:43:39.522Z,55.10
2019-04-14T07:46:27.517Z,54.80
2019-04-14T07:49:01.843Z,55.40
2019-04-14T07:51:39.438Z,55.10
2019-04-14T07:54:16.732Z,54.40
2019-04-14T07:57:03.498Z,55.10
2019-04-14T07:59:38.153Z,54.80
2019-04-14T08:02:24.769Z,55.20
2019-04-14T08:04:58.986Z,54.10
2019-04-14T08:07:29.002Z,52.60
2019-04-14T08:10:00.072Z,54.10
2019-04-14T08:12:31.025Z,53.10
2019-04-14T08:15:00.843Z,54.00
2019-04-14T08:17:30.651Z,53.90
2019-04-14T08:20:00.652Z,53.80
2019-04-14T08:22:30.474Z,54.10
2019-04-14T08:25:00.285Z,53.80
2019-04-14T08:27:30.161Z,53.40
2019-04-14T08:30:00.404Z,53.40
2019-04-14T08:32:31.428Z,53.80
2019-04-14T08:37:41.629Z,53.60
2019-04-14T08:40:11.615Z,53.40
2019-04-14T08:42:58.555Z,52.80
2019-04-14T08:45:32.541Z,53.00
2019-04-14T08:48:06.857Z,53.30
2019-04-14T08:50:39.578Z,53.00
2019-04-14T08:53:23.403Z,53.90
2019-04-14T08:56:11.375Z,54.00
2019-04-14T08:58:45.830Z,53.80
2019-04-14T09:01:26.402Z,53.10
2019-04-14T09:04:00.463Z,53.00
2019-04-14T09:06:40.925Z,53.60
2019-04-14T09:09:12.382Z,53.20
2019-04-14T09:11:46.803Z,52.80
2019-04-14T09:14:16.890Z,54.40
2019-04-14T09:16:47.191Z,53.30
2019-04-14T09:19:17.009Z,53.80
2019-04-14T09:21:46.920Z,54.00
2019-04-14T09:24:16.835Z,53.70
2019-04-14T09:26:46.747Z,54.60
2019-04-14T09:29:16.661Z,53.80
2019-04-14T09:31:46.810Z,54.00
2019-04-14T09:34:16.682Z,55.90
2019-04-14T09:36:46.494Z,53.70
2019-04-14T09:39:16.313Z,54.00
2019-04-14T09:41:46.122Z,54.70
2019-04-14T09:44:16.050Z,54.10
2019-04-14T09:46:46.066Z,54.40
2019-04-14T09:49:15.977Z,55.70
2019-04-14T09:51:45.804Z,55.10
2019-04-14T09:54:15.708Z,54.00
2019-04-14T09:56:45.960Z,54.30
2019-04-14T09:59:16.077Z,55.30
2019-04-14T10:01:46.103Z,55.60
2019-04-14T10:04:17.289Z,55.40
2019-04-14T10:06:47.175Z,54.90
2019-04-14T10:09:17.481Z,56.00
2019-04-14T10:11:49.000Z,55.20
2019-04-14T10:14:18.920Z,54.50
2019-04-14T10:16:48.782Z,54.50
2019-04-14T10:19:18.581Z,54.40
2019-04-14T10:21:48.457Z,55.60
2019-04-14T10:24:18.275Z,54.50
2019-04-14T10:26:48.158Z,54.40
2019-04-14T10:29:17.970Z,54.30
2019-04-14T10:31:48.250Z,53.60
2019-04-14T10:34:18.061Z,53.60
2019-04-14T10:36:47.884Z,53.80
2019-04-14T10:39:17.761Z,53.30
2019-04-14T10:41:49.178Z,51.80
2019-04-14T10:44:18.986Z,52.40
2019-04-14T10:46:48.871Z,51.20
2019-04-14T10:49:19.059Z,50.90
2019-04-14T10:51:50.025Z,51.90
2019-04-14T10:54:20.846Z,49.60
2019-04-14T10:56:50.668Z,50.90
2019-04-14T10:59:20.559Z,50.90
2019-04-14T11:01:50.374Z,51.60
2019-04-14T11:04:20.258Z,51.80
2019-04-14T11:07:00.853Z,50.00
2019-04-14T11:09:31.175Z,50.50
2019-04-14T11:12:00.990Z,51.30
2019-04-14T11:14:30.808Z,51.40
2019-04-14T11:17:00.718Z,50.50
2019-04-14T11:19:30.626Z,50.40
2019-04-14T11:22:00.541Z,51.70
2019-04-14T11:24:30.770Z,51.50
2019-04-14T11:27:00.682Z,51.90
2019-04-14T11:29:30.595Z,51.70
2019-04-14T11:32:18.297Z,51.90
2019-04-14T11:34:55.819Z,52.10
2019-04-14T11:37:43.677Z,51.50
2019-04-14T11:40:15.208Z,52.50
2019-04-14T11:42:52.221Z,50.20
2019-04-14T11:45:17.280Z,50.50
2019-04-14T11:47:47.078Z,50.40
2019-04-14T11:50:16.946Z,49.80
2019-04-14T11:52:46.826Z,49.80
2019-04-14T11:55:18.245Z,50.30
2019-04-14T11:57:48.102Z,50.80
2019-04-14T12:00:35.779Z,50.30
2019-04-14T12:03:13.361Z,49.60
2019-04-14T12:05:53.982Z,50.70
2019-04-14T12:08:32.013Z,50.60
2019-04-14T12:11:02.746Z,50.20
2019-04-14T12:13:32.542Z,50.80
2019-04-14T12:16:02.414Z,51.00
2019-04-14T12:18:32.293Z,51.80
2019-04-14T12:21:02.085Z,51.80
2019-04-14T12:23:32.030Z,50.70
2019-04-14T12:26:05.502Z,51.90
2019-04-14T12:28:33.907Z,52.30
2019-04-14T12:31:04.157Z,51.00
2019-04-14T12:33:33.961Z,51.70
2019-04-14T12:36:05.785Z,50.70
2019-04-14T12:38:35.660Z,51.40
2019-04-14T12:41:08.144Z,51.60
2019-04-14T12:43:39.628Z,50.90
2019-04-14T12:46:22.809Z,50.80
2019-04-14T12:48:57.383Z,50.70
2019-04-14T12:51:28.833Z,50.70
2019-04-14T12:53:58.628Z,51.70
2019-04-14T12:56:29.843Z,51.70
2019-04-14T12:59:01.254Z,51.60
2019-04-14T13:01:52.016Z,51.90
2019-04-14T13:04:21.879Z,52.10
2019-04-14T13:06:51.846Z,52.50
2019-04-14T13:09:22.616Z,53.60
2019-04-14T13:11:52.431Z,53.40
2019-04-14T13:14:22.246Z,53.50
2019-04-14T13:16:52.117Z,54.40
2019-04-14T13:19:22.013Z,54.10
2019-04-14T13:21:51.804Z,55.10
2019-04-14T13:24:21.759Z,53.00
2019-04-14T13:26:51.574Z,53.40
2019-04-14T13:29:21.370Z,54.10
2019-04-14T13:31:52.320Z,54.30
2019-04-14T13:34:22.242Z,54.40
2019-04-14T13:36:52.052Z,53.00
2019-04-14T13:39:21.849Z,54.10
2019-04-14T13:41:51.653Z,53.90
2019-04-14T13:44:21.521Z,53.80
2019-04-14T13:46:51.525Z,53.50
2019-04-14T13:49:21.374Z,54.10
2019-04-14T13:51:51.193Z,54.30
2019-04-14T13:54:22.203Z,53.80
2019-04-14T13:56:52.009Z,54.00
2019-04-14T13:59:22.125Z,53.20
2019-04-14T14:01:52.001Z,53.80
2019-04-14T14:04:21.825Z,54.30
2019-04-14T14:06:51.715Z,54.40
2019-04-14T14:09:21.563Z,53.60
2019-04-14T14:11:55.856Z,53.30
2019-04-14T14:14:36.543Z,53.20
2019-04-14T14:17:20.171Z,53.80
2019-04-14T14:19:51.602Z,54.10
2019-04-14T14:22:23.073Z,53.70
2019-04-14T14:25:03.294Z,52.20
2019-04-14T14:27:33.080Z,53.00
2019-04-14T14:30:04.737Z,51.10
2019-04-14T14:32:36.050Z,50.90
2019-04-14T14:35:06.373Z,51.30
2019-04-14T14:37:37.258Z,51.10
2019-04-14T14:40:07.290Z,50.60
2019-04-14T14:42:37.148Z,51.10
2019-04-14T14:45:08.585Z,50.10
2019-04-14T14:47:38.453Z,50.70
2019-04-14T14:50:09.899Z,49.50
2019-04-14T14:52:41.169Z,50.40
2019-04-14T14:55:11.048Z,50.20
2019-04-14T14:57:40.847Z,49.40
2019-04-14T15:00:14.877Z,49.70
2019-04-14T15:02:44.678Z,48.80
2019-04-14T15:05:14.910Z,49.60
2019-04-14T15:07:44.675Z,50.80
2019-04-14T15:10:14.474Z,50.60
2019-04-14T15:12:44.415Z,51.60
2019-04-14T15:15:14.506Z,50.80
2019-04-14T15:17:44.314Z,50.50
2019-04-14T15:20:14.120Z,50.80
2019-04-14T15:22:43.924Z,50.90
2019-04-14T15:25:13.732Z,50.80
2019-04-14T15:27:43.607Z,50.30
2019-04-14T15:30:19.022Z,50.90
2019-04-14T15:32:48.889Z,51.30
2019-04-14T15:35:19.101Z,51.10
2019-04-14T15:37:48.898Z,51.30
2019-04-14T15:40:18.714Z,51.30
2019-04-14T15:42:48.578Z,51.50
2019-04-14T15:45:18.463Z,51.10
2019-04-14T15:47:48.325Z,51.40
2019-04-14T15:50:18.206Z,51.40
2019-04-14T15:52:48.228Z,51.60
2019-04-14T15:55:19.160Z,51.40
2019-04-14T15:57:59.987Z,51.10
2019-04-14T16:00:47.940Z,51.10
2019-04-14T16:03:19.382Z,50.80
2019-04-14T16:06:03.046Z,50.80
2019-04-14T16:08:43.910Z,50.80
2019-04-14T16:11:31.546Z,51.00
2019-04-14T16:14:08.862Z,50.20
2019-04-14T16:16:46.493Z,50.90
2019-04-14T16:19:20.745Z,51.90
2019-04-14T16:21:50.835Z,52.30
2019-04-14T16:24:20.748Z,51.30
2019-04-14T16:26:52.228Z,50.50
2019-04-14T16:29:33.340Z,50.40
2019-04-14T16:32:07.765Z,50.20
2019-04-14T16:34:39.269Z,51.40
2019-04-14T16:37:09.213Z,51.20
2019-04-14T16:39:39.078Z,50.50
2019-04-14T16:42:09.910Z,50.50
2019-04-14T16:44:39.826Z,50.90
2019-04-14T16:47:09.760Z,50.40
2019-04-14T16:49:39.689Z,51.00
2019-04-14T16:52:11.210Z,49.90
2019-04-14T16:55:00.740Z,50.40
2019-04-14T16:57:52.025Z,50.10
2019-04-14T17:00:26.491Z,50.20
2019-04-14T17:02:56.666Z,51.30
2019-04-14T17:05:26.787Z,50.80
2019-04-14T17:07:56.679Z,50.50
2019-04-14T17:10:26.590Z,51.50
2019-04-14T17:12:56.554Z,51.50
2019-04-14T17:15:40.673Z,50.50
2019-04-14T17:18:28.510Z,50.70
2019-04-14T17:21:05.971Z,50.10
2019-04-14T17:23:53.817Z,51.00
2019-04-14T17:26:41.787Z,50.90
2019-04-14T17:29:25.228Z,50.50
2019-04-14T17:31:59.461Z,51.40
2019-04-14T17:34:30.989Z,51.00
2019-04-14T17:37:05.579Z,51.40
2019-04-14T17:39:37.081Z,50.30
2019-04-14T17:42:20.371Z,50.50
2019-04-14T17:44:51.806Z,52.00
2019-04-14T17:47:26.278Z,50.80
2019-04-14T17:50:14.246Z,51.10
2019-04-14T17:52:54.637Z,51.00
2019-04-14T17:55:29.234Z,51.50
2019-04-14T17:58:00.869Z,51.40
2019-04-14T18:00:32.804Z,52.00
2019-04-14T18:03:04.233Z,54.00
2019-04-14T18:05:35.751Z,54.80
2019-04-14T18:08:13.167Z,55.70
2019-04-14T18:10:44.606Z,56.80
2019-04-14T18:13:16.052Z,55.90
2019-04-14T18:15:47.780Z,56.60
2019-04-14T18:18:19.378Z,56.70
2019-04-14T18:20:50.825Z,56.70
2019-04-14T18:23:21.087Z,56.60
2019-04-14T18:25:50.862Z,58.00
2019-04-14T18:28:25.216Z,59.10
2019-04-14T18:31:00.835Z,60.00
2019-04-14T18:33:35.458Z,61.60
2019-04-14T18:36:07.011Z,61.30
2019-04-14T18:38:55.186Z,61.40
2019-04-14T18:41:32.654Z,61.40
2019-04-14T18:44:10.138Z,62.10
2019-04-14T18:46:41.957Z,62.30
2019-04-14T18:49:25.462Z,62.20
2019-04-14T18:51:56.917Z,62.20
2019-04-14T18:54:37.510Z,62.60
2019-04-14T18:57:13.585Z,62.30
2019-04-14T18:59:48.159Z,62.50
2019-04-14T19:02:18.034Z,62.50
2019-04-14T19:04:47.963Z,62.90
2019-04-14T19:07:17.768Z,63.10
2019-04-14T19:09:47.922Z,62.70
2019-04-14T19:12:22.321Z,63.10
2019-04-14T19:15:03.043Z,63.40
2019-04-14T19:17:37.312Z,63.70
2019-04-14T19:20:07.115Z,63.90
2019-04-14T19:22:36.926Z,64.10
2019-04-14T19:25:08.485Z,63.70
2019-04-14T19:27:38.310Z,64.00
2019-04-14T19:30:08.128Z,64.50
2019-04-14T19:32:38.120Z,64.80
2019-04-14T19:35:09.598Z,65.40
2019-04-14T19:37:39.923Z,65.40
2019-04-14T19:40:09.917Z,65.00
2019-04-14T19:42:39.798Z,65.60
2019-04-14T19:45:09.671Z,65.20
2019-04-14T19:47:39.654Z,65.40
2019-04-14T19:50:09.466Z,65.40
2019-04-14T19:52:39.277Z,65.20
2019-04-14T19:55:19.922Z,65.40
2019-04-14T19:57:40.646Z,66.50
2019-04-14T20:00:10.867Z,66.60
2019-04-14T20:02:41.193Z,66.20
2019-04-14T20:05:12.879Z,67.20
2019-04-14T20:07:42.867Z,67.60
2019-04-14T20:10:12.885Z,67.70
2019-04-14T20:12:42.799Z,67.70
2019-04-14T20:15:14.351Z,68.00
2019-04-14T20:18:01.006Z,67.90
2019-04-14T20:20:48.917Z,68.50
2019-04-14T20:23:29.118Z,68.30
2019-04-14T20:26:06.598Z,68.20
2019-04-14T20:28:47.372Z,68.70
2019-04-14T20:31:21.696Z,68.50
2019-04-14T20:33:51.584Z,68.40
2019-04-14T20:36:22.511Z,68.10
2019-04-14T20:38:52.295Z,68.50
2019-04-14T20:41:23.085Z,68.60
2019-04-14T20:43:52.942Z,68.40
2019-04-14T20:46:22.745Z,68.90
2019-04-14T20:48:52.569Z,68.70
2019-04-14T20:51:22.514Z,68.60
2019-04-14T20:53:52.957Z,68.70
2019-04-14T20:56:23.044Z,68.70
2019-04-14T20:58:52.942Z,68.50
2019-04-14T21:01:23.583Z,67.90
2019-04-14T21:04:00.961Z,67.70
2019-04-14T21:06:54.306Z,67.90
2019-04-14T21:09:29.498Z,67.30
2019-04-14T21:12:00.931Z,67.30
2019-04-14T21:14:48.684Z,67.60
2019-04-14T21:17:29.073Z,67.20
2019-04-14T21:20:06.199Z,66.30
2019-04-14T21:22:40.477Z,66.30
2019-04-14T21:25:20.698Z,66.80
2019-04-14T21:28:08.506Z,66.70
2019-04-14T21:30:39.942Z,66.20
2019-04-14T21:33:20.855Z,66.40
2019-04-14T21:36:07.657Z,66.80
2019-04-14T21:38:39.119Z,66.80
2019-04-14T21:41:13.278Z,66.70
2019-04-14T21:43:43.220Z,66.90
2019-04-14T21:46:13.164Z,66.80
2019-04-14T21:48:42.959Z,66.80
2019-04-14T21:51:13.089Z,66.80
2019-04-14T21:53:42.977Z,67.20
2019-04-14T21:56:13.881Z,67.00
2019-04-14T21:58:51.154Z,67.20
2019-04-14T22:01:42.297Z,67.30
2019-04-14T22:04:29.998Z,67.70
2019-04-14T22:07:01.906Z,67.80
2019-04-14T22:09:36.078Z,66.90
2019-04-14T22:12:07.618Z,67.30
2019-04-14T22:14:37.494Z,67.40
2019-04-14T22:17:07.817Z,67.60
2019-04-14T22:19:37.728Z,67.70
2019-04-14T22:22:07.603Z,68.00
2019-04-14T22:24:37.789Z,68.40
2019-04-14T22:27:20.511Z,68.80
2019-04-14T22:29:50.404Z,68.90
2019-04-14T22:32:20.205Z,69.00
2019-04-14T22:34:50.026Z,68.80
2019-04-14T22:37:20.376Z,68.90
2019-04-14T22:39:50.291Z,68.90
2019-04-14T22:42:20.161Z,69.20
2019-04-14T22:44:49.973Z,69.20
2019-04-14T22:47:19.798Z,69.30
2019-04-14T22:49:49.971Z,69.50
2019-04-14T22:52:19.780Z,69.50
2019-04-14T22:54:50.087Z,69.40
2019-04-14T22:57:19.878Z,69.20
2019-04-14T22:59:49.686Z,69.50
2019-04-14T23:02:30.450Z,69.30
2019-04-14T23:05:05.253Z,69.20
2019-04-14T23:07:52.531Z,69.40
2019-04-14T23:10:27.259Z,69.50
2019-04-14T23:13:15.196Z,69.50
2019-04-14T23:16:22.330Z,69.30
2019-04-14T23:19:06.211Z,69.00
2019-04-14T23:21:46.791Z,69.10
2019-04-14T23:24:18.331Z,69.30
2019-04-14T23:26:52.678Z,68.10
2019-04-14T23:29:20.221Z,67.20
2019-04-14T23:31:50.137Z,66.70
2019-04-14T23:34:20.181Z,66.40
2019-04-14T23:36:50.342Z,67.00
2019-04-14T23:39:20.209Z,66.70
2019-04-14T23:41:50.105Z,66.30
2019-04-14T23:44:20.220Z,66.20
2019-04-14T23:46:50.039Z,65.50
2019-04-14T23:49:19.812Z,65.30
2019-04-14T23:51:49.726Z,65.60
2019-04-14T23:54:19.599Z,65.80
2019-04-14T23:56:49.492Z,66.00
2019-04-14T23:59:19.370Z,66.30
